Time;durP1;ratioP1;P1;durP2;ratioP2;P2;SDS_P1;SDS_P2;PMS_P1;PMS_P2;Temp;Humidity;BMP_temperature;BMP_pressure;BME280_temperature;BME280_humidity;BME280_pressure;Samples;Min_cycle;Max_cycle;Signal;HPM_P1;HPM_P2
2021/12/09 00:01:07;;;;;;;;;;;3.00;95.00;;;;;;3916541;30;20055;-63
2021/12/09 00:03:34;;;;;;;0.00;0.00;;;2.90;95.00;;;;;;3916230;30;19933;-62
2021/12/09 00:05:58;;;;;;;0.00;0.00;;;2.90;94.90;;;;;;3916219;30;20067;-62
2021/12/09 00:08:21;;;;;;;0.00;0.00;;;2.90;94.90;;;;;;3928156;30;20139;-63
2021/12/09 00:10:43;;;;;;;0.00;0.00;;;3.00;94.90;;;;;;3928111;30;20052;-63
2021/12/09 00:13:07;;;;;;;0.00;0.00;;;3.20;95.00;;;;;;3916299;30;20155;-62
2021/12/09 00:15:29;;;;;;;0.00;0.00;;;3.30;94.90;;;;;;3916122;30;20060;-62
2021/12/09 00:17:51;;;;;;;0.00;0.00;;;3.40;94.80;;;;;;3916151;30;20072;-62
2021/12/09 00:20:15;;;;;;;0.00;0.00;;;3.50;94.50;;;;;;3915528;30;20063;-62
2021/12/09 00:22:38;;;;;;;0.00;0.00;;;3.60;94.40;;;;;;3915664;30;20049;-62
2021/12/09 00:25:00;;;;;;;0.00;0.00;;;3.60;94.10;;;;;;3915842;30;20132;-62
2021/12/09 00:27:22;;;;;;;0.00;0.00;;;3.60;94.00;;;;;;3915829;30;20075;-62
2021/12/09 00:29:45;;;;;;;0.00;0.00;;;3.60;94.10;;;;;;3915901;30;20072;-62
2021/12/09 00:32:08;;;;;;;0.00;0.00;;;3.60;94.10;;;;;;3903696;30;20052;-62
2021/12/09 00:34:35;;;;;;;0.00;0.00;;;3.70;94.10;;;;;;3915272;30;20052;-63
2021/12/09 00:37:10;;;;;;;0.00;0.00;;;3.70;94.10;;;;;;3928157;30;20082;-63
2021/12/09 00:39:33;;;;;;;0.00;0.00;;;3.80;94.00;;;;;;3915683;30;20055;-63
2021/12/09 00:41:55;;;;;;;0.00;0.00;;;3.70;94.00;;;;;;3915529;30;20098;-63
2021/12/09 00:44:18;;;;;;;0.00;0.00;;;3.80;93.90;;;;;;3915416;30;20095;-63
2021/12/09 00:46:40;;;;;;;0.00;0.00;;;3.80;94.10;;;;;;3915760;30;20048;-63
2021/12/09 00:49:03;;;;;;;0.00;0.00;;;3.80;93.80;;;;;;3915665;30;20100;-62
2021/12/09 00:51:26;;;;;;;0.00;0.00;;;3.80;93.90;;;;;;3915516;30;20640;-62
2021/12/09 00:53:48;;;;;;;0.00;0.00;;;3.70;94.00;;;;;;3927844;30;20056;-62
2021/12/09 00:56:12;;;;;;;0.00;0.00;;;3.70;93.90;;;;;;3915472;30;20102;-62
2021/12/09 00:58:37;;;;;;;0.00;0.00;;;3.60;94.00;;;;;;3915107;30;20052;-62
2021/12/09 01:01:00;;;;;;;0.00;0.00;;;3.70;94.10;;;;;;3915389;30;20053;-63
2021/12/09 01:03:23;;;;;;;0.00;0.00;;;3.70;94.00;;;;;;3915521;30;20060;-63
2021/12/09 01:05:46;;;;;;;0.00;0.00;;;3.70;94.00;;;;;;3915460;30;20084;-62
2021/12/09 01:08:29;;;;;;;0.00;0.00;;;3.70;94.00;;;;;;3915158;30;20067;-63
2021/12/09 01:10:51;;;;;;;0.00;0.00;;;3.70;94.00;;;;;;3915359;30;20048;-63
2021/12/09 01:13:14;;;;;;;0.00;0.00;;;3.80;93.90;;;;;;3915559;30;20072;-62
2021/12/09 01:15:36;;;;;;;0.00;0.00;;;3.80;93.80;;;;;;3927553;30;20060;-62
2021/12/09 01:17:59;;;;;;;0.00;0.00;;;3.80;93.80;;;;;;3915310;30;20059;-63
2021/12/09 01:20:25;;;;;;;0.00;0.00;;;3.80;93.90;;;;;;3914939;30;20090;-63
2021/12/09 01:22:47;;;;;;;0.00;0.00;;;3.80;93.90;;;;;;3915485;30;20087;-63
2021/12/09 01:25:13;;;;;;;0.00;0.00;;;3.80;93.80;;;;;;3927583;30;20048;-63
2021/12/09 01:27:36;;;;;;;0.00;0.00;;;3.80;93.80;;;;;;3915385;30;20114;-62
2021/12/09 01:30:06;;;;;;;0.00;0.00;;;3.80;93.90;;;;;;3915316;30;20049;-63
2021/12/09 01:32:30;;;;;;;0.00;0.00;;;3.70;94.00;;;;;;3914649;30;20052;-63
2021/12/09 01:34:53;;;;;;;0.00;0.00;;;3.70;94.00;;;;;;3914943;30;20044;-63
2021/12/09 01:37:15;;;;;;;0.00;0.00;;;3.60;94.30;;;;;;3927345;30;20051;-63
2021/12/09 01:39:38;;;;;;;0.00;0.00;;;3.60;94.20;;;;;;3915101;30;20052;-62
2021/12/09 01:42:01;;;;;;;0.00;0.00;;;3.60;94.30;;;;;;3915072;30;20053;-62
2021/12/09 01:44:23;;;;;;;0.00;0.00;;;3.50;94.40;;;;;;3902857;30;20078;-62
2021/12/09 01:46:46;;;;;;;0.00;0.00;;;3.70;94.30;;;;;;3915085;30;20124;-62
2021/12/09 01:49:08;;;;;;;0.00;0.00;;;3.70;94.20;;;;;;3915097;30;20429;-62
2021/12/09 01:51:31;;;;;;;0.00;0.00;;;3.70;94.10;;;;;;3914878;30;20056;-62
2021/12/09 01:53:53;;;;;;;0.00;0.00;;;3.80;93.90;;;;;;3915165;30;20072;-62
2021/12/09 01:56:21;;;;;;;0.00;0.00;;;3.80;93.80;;;;;;3914827;30;20550;-63
2021/12/09 01:58:44;;;;;;;0.00;0.00;;;3.80;93.70;;;;;;3914959;30;20044;-62
2021/12/09 02:01:07;;;;;;;0.00;0.00;;;3.80;93.80;;;;;;3914928;30;20420;-62
2021/12/09 02:03:29;;;;;;;0.00;0.00;;;3.80;93.90;;;;;;3903141;30;20080;-62
2021/12/09 02:05:53;;;;;;;0.00;0.00;;;3.80;93.80;;;;;;3914961;30;20168;-62
2021/12/09 02:08:17;;;;;;;0.00;0.00;;;3.80;93.90;;;;;;3926845;30;20109;-63
2021/12/09 02:10:41;;;;;;;0.00;0.00;;;3.80;93.90;;;;;;3915539;30;20053;-62
2021/12/09 02:13:05;;;;;;;0.00;0.00;;;3.70;93.90;;;;;;3917738;30;20053;-62
2021/12/09 02:15:27;;;;;;;0.00;0.00;;;3.80;94.00;;;;;;3918094;30;20053;-62
2021/12/09 02:17:50;;;;;;;0.00;0.00;;;3.80;94.00;;;;;;3930206;30;20056;-62
2021/12/09 02:20:13;;;;;;;0.00;0.00;;;3.90;93.90;;;;;;3930138;30;20131;-62
2021/12/09 02:22:36;;;;;;;0.00;0.00;;;3.90;94.10;;;;;;3916999;30;20114;-62
2021/12/09 02:24:59;;;;;;;0.00;0.00;;;3.90;93.80;;;;;;3917569;30;20151;-62
2021/12/09 02:27:23;;;;;;;0.00;0.00;;;3.90;93.80;;;;;;3917762;30;20123;-62
2021/12/09 02:29:45;;;;;;;0.00;0.00;;;4.00;93.80;;;;;;3917663;30;20423;-62
2021/12/09 02:32:08;;;;;;;0.00;0.00;;;4.00;93.70;;;;;;3917421;30;20683;-62
2021/12/09 02:34:30;;;;;;;0.00;0.00;;;4.00;93.70;;;;;;3916896;30;20117;-62
2021/12/09 02:36:53;;;;;;;0.00;0.00;;;3.90;93.90;;;;;;3905393;30;20522;-62
2021/12/09 02:39:15;;;;;;;0.00;0.00;;;3.80;93.90;;;;;;3917374;30;20583;-62
2021/12/09 02:41:39;;;;;;;0.00;0.00;;;3.80;94.00;;;;;;3917229;30;20049;-62
2021/12/09 02:44:04;;;;;;;0.00;0.00;;;3.80;93.90;;;;;;3917513;30;20056;-63
2021/12/09 02:46:27;;;;;;;0.00;0.00;;;3.80;93.90;;;;;;3917023;30;20061;-62
2021/12/09 02:48:50;;;;;;;0.00;0.00;;;3.70;93.90;;;;;;3917279;30;20049;-62
2021/12/09 02:51:14;;;;;;;0.00;0.00;;;3.60;94.20;;;;;;3917306;30;20047;-61
2021/12/09 02:53:37;;;;;;;0.00;0.00;;;3.60;94.30;;;;;;3917217;30;20056;-62
2021/12/09 02:55:59;;;;;;;0.00;0.00;;;3.70;94.20;;;;;;3917322;30;20144;-62
2021/12/09 02:58:22;;;;;;;0.00;0.00;;;3.80;94.10;;;;;;3916756;30;20083;-62
2021/12/09 03:00:57;;;;;;;0.00;0.00;;;3.80;93.90;;;;;;3916387;30;20092;-62
2021/12/09 03:03:20;;;;;;;0.00;0.00;;;3.80;94.10;;;;;;3928748;30;20052;-62
2021/12/09 03:05:44;;;;;;;0.00;0.00;;;3.80;93.80;;;;;;3932072;30;20051;-62
2021/12/09 03:08:08;;;;;;;0.00;0.00;;;3.80;93.90;;;;;;3931838;30;20400;-62
2021/12/09 03:10:30;;;;;;;0.00;0.00;;;3.80;93.80;;;;;;3918969;30;20052;-62
2021/12/09 03:12:55;;;;;;;0.00;0.00;;;3.80;93.80;;;;;;3932042;30;20056;-63
2021/12/09 03:15:18;;;;;;;0.00;0.00;;;3.80;93.80;;;;;;3931717;30;20131;-63
2021/12/09 03:17:42;;;;;;;0.00;0.00;;;3.80;93.80;;;;;;3931534;30;20388;-62
2021/12/09 03:20:09;;;;;;;0.00;0.00;;;3.80;93.80;;;;;;3931527;30;20065;-62
2021/12/09 03:22:39;;;;;;;0.00;0.00;;;3.80;93.70;;;;;;3931371;30;20121;-61
2021/12/09 03:25:04;;;;;;;0.00;0.00;;;3.80;93.70;;;;;;3935174;30;20079;-62
2021/12/09 03:27:26;;;;;;;0.00;0.00;;;3.80;93.70;;;;;;3946084;30;20086;-62
2021/12/09 03:29:48;;;;;;;0.00;0.00;;;3.80;93.70;;;;;;3933844;30;20135;-62
2021/12/09 03:32:14;;;;;;;0.00;0.00;;;3.80;93.60;;;;;;3932319;30;20398;-61
2021/12/09 03:34:38;;;;;;;0.00;0.00;;;3.90;93.90;;;;;;3930750;30;20090;-62
2021/12/09 03:37:03;;;;;;;0.00;0.00;;;3.80;93.60;;;;;;3932201;30;20139;-62
2021/12/09 03:39:35;;;;;;;0.00;0.00;;;3.80;93.70;;;;;;3916229;30;20057;-62
2021/12/09 03:41:59;;;;;;;0.00;0.00;;;3.80;93.70;;;;;;3936957;30;20478;-62
2021/12/09 03:44:22;;;;;;;0.00;0.00;;;3.80;93.70;;;;;;3930868;30;20060;-61
2021/12/09 03:46:45;;;;;;;0.00;0.00;;;3.70;93.70;;;;;;3928300;30;20052;-62
2021/12/09 03:49:09;;;;;;;0.00;0.00;;;3.80;93.70;;;;;;3928654;30;20059;-61
2021/12/09 03:51:35;;;;;;;0.00;0.00;;;3.70;93.80;;;;;;3916290;30;20507;-61
2021/12/09 03:53:57;;;;;;;0.00;0.00;;;3.70;93.90;;;;;;3953194;30;20051;-61
2021/12/09 03:56:20;;;;;;;0.00;0.00;;;3.70;93.80;;;;;;3945364;30;20365;-62
2021/12/09 03:58:42;;;;;;;0.00;0.00;;;3.70;93.80;;;;;;3945621;30;20138;-62
2021/12/09 04:01:05;;;;;;;0.00;0.00;;;3.60;93.90;;;;;;3941867;30;20086;-62
2021/12/09 04:03:29;;;;;;;0.00;0.00;;;3.60;94.00;;;;;;3928576;30;20062;-61
2021/12/09 04:05:51;;;;;;;0.00;0.00;;;3.60;94.10;;;;;;3904347;30;20056;-62
2021/12/09 04:08:15;;;;;;;0.00;0.00;;;3.60;94.10;;;;;;3928031;30;20075;-63
2021/12/09 04:10:38;;;;;;;0.00;0.00;;;3.60;94.00;;;;;;3928118;30;20066;-61
2021/12/09 04:13:01;;;;;;;0.00;0.00;;;3.60;94.00;;;;;;3916060;30;20056;-61
2021/12/09 04:15:23;;;;;;;0.00;0.00;;;3.60;94.00;;;;;;3928440;30;20044;-61
2021/12/09 04:17:45;;;;;;;0.00;0.00;;;3.60;94.00;;;;;;3928317;30;20062;-61
2021/12/09 04:20:10;;;;;;;0.00;0.00;;;3.40;94.30;;;;;;3903810;30;20049;-61
2021/12/09 04:22:33;;;;;;;0.00;0.00;;;3.40;94.40;;;;;;3915573;30;20135;-61
2021/12/09 04:24:55;;;;;;;0.00;0.00;;;3.40;94.40;;;;;;3916120;30;20478;-61
2021/12/09 04:27:18;;;;;;;0.00;0.00;;;3.50;94.40;;;;;;3916000;30;20048;-61
2021/12/09 04:29:40;;;;;;;0.00;0.00;;;3.50;94.40;;;;;;3928078;30;20134;-61
2021/12/09 04:32:04;;;;;;;0.00;0.00;;;3.60;94.30;;;;;;3915751;30;20147;-61
2021/12/09 04:34:27;;;;;;;0.00;0.00;;;3.60;94.20;;;;;;3922092;30;20064;-62
2021/12/09 04:36:49;;;;;;;0.00;0.00;;;3.70;94.20;;;;;;3915947;30;20049;-61
2021/12/09 04:39:12;;;;;;;0.00;0.00;;;3.60;94.20;;;;;;3928102;30;20541;-61
2021/12/09 04:41:34;;;;;;;0.00;0.00;;;3.60;94.20;;;;;;3915430;30;20543;-61
2021/12/09 04:43:57;;;;;;;0.00;0.00;;;3.60;94.20;;;;;;3928012;30;20072;-61
2021/12/09 04:46:19;;;;;;;0.00;0.00;;;3.70;94.10;;;;;;3927458;30;20064;-62
2021/12/09 04:48:42;;;;;;;0.00;0.00;;;3.60;94.20;;;;;;3915758;30;20048;-62
2021/12/09 04:51:05;;;;;;;0.00;0.00;;;3.70;94.10;;;;;;3915463;30;20063;-61
2021/12/09 04:53:27;;;;;;;0.00;0.00;;;3.60;94.20;;;;;;3927760;30;20135;-61
2021/12/09 04:55:49;;;;;;;0.00;0.00;;;3.60;94.30;;;;;;3915599;30;20140;-62
2021/12/09 04:58:12;;;;;;;0.00;0.00;;;3.60;94.30;;;;;;3915553;30;20481;-61
2021/12/09 05:00:39;;;;;;;0.00;0.00;;;3.60;94.30;;;;;;3914953;30;20140;-62
2021/12/09 05:03:08;;;;;;;0.00;0.00;;;3.70;94.30;;;;;;3927888;30;20049;-62
2021/12/09 05:05:36;;;;;;;0.00;0.00;;;3.70;94.30;;;;;;3927731;30;20682;-62
2021/12/09 05:08:00;;;;;;;0.00;0.00;;;3.70;94.20;;;;;;3915374;30;20084;-62
2021/12/09 05:10:23;;;;;;;0.00;0.00;;;3.70;94.20;;;;;;3914672;30;20119;-62
2021/12/09 05:12:45;;;;;;;0.00;0.00;;;3.80;94.20;;;;;;3915406;30;20076;-62
2021/12/09 05:15:09;;;;;;;0.00;0.00;;;3.80;94.20;;;;;;3915353;30;20045;-62
2021/12/09 05:17:31;;;;;;;0.00;0.00;;;3.80;94.10;;;;;;3915415;30;20064;-62
2021/12/09 05:19:54;;;;;;;0.00;0.00;;;3.90;94.10;;;;;;3915176;30;20060;-62
2021/12/09 05:22:17;;;;;;;0.00;0.00;;;3.90;94.00;;;;;;3914647;30;20090;-63
2021/12/09 05:24:40;;;;;;;0.00;0.00;;;4.00;94.00;;;;;;3915356;30;20519;-62
2021/12/09 05:27:04;;;;;;;0.00;0.00;;;4.00;93.90;;;;;;3915436;30;20076;-62
2021/12/09 05:29:37;;;;;;;0.00;0.00;;;4.00;93.90;;;;;;3915292;30;20088;-62
2021/12/09 05:32:08;;;;;;;0.00;0.00;;;4.00;93.90;;;;;;3915116;30;20056;-62
2021/12/09 05:34:32;;;;;;;0.00;0.00;;;4.10;93.80;;;;;;3914701;30;20114;-62
2021/12/09 05:36:54;;;;;;;0.00;0.00;;;4.10;93.80;;;;;;3915132;30;20079;-62
2021/12/09 05:39:17;;;;;;;0.00;0.00;;;4.10;93.80;;;;;;3915340;30;20499;-62
2021/12/09 05:41:40;;;;;;;0.00;0.00;;;4.10;93.80;;;;;;3914967;30;20053;-62
2021/12/09 05:44:04;;;;;;;0.00;0.00;;;4.10;93.90;;;;;;3915161;30;20079;-62
2021/12/09 05:46:27;;;;;;;0.00;0.00;;;4.10;93.90;;;;;;3916818;30;20140;-62
2021/12/09 05:48:50;;;;;;;0.00;0.00;;;4.00;93.80;;;;;;3918274;30;20048;-62
2021/12/09 05:51:13;;;;;;;0.00;0.00;;;4.00;94.00;;;;;;3917832;30;20157;-62
2021/12/09 05:53:35;;;;;;;0.00;0.00;;;4.00;94.10;;;;;;3918089;30;20056;-61
2021/12/09 05:55:58;;;;;;;0.00;0.00;;;4.00;94.10;;;;;;3918114;30;20131;-60
2021/12/09 05:58:24;;;;;;;0.00;0.00;;;4.10;94.10;;;;;;3917612;30;20442;-61
2021/12/09 06:00:49;;;;;;;0.00;0.00;;;4.10;94.10;;;;;;3917640;30;20079;-61
2021/12/09 06:03:11;;;;;;;0.00;0.00;;;4.10;94.00;;;;;;3917846;30;20106;-61
2021/12/09 06:05:35;;;;;;;0.00;0.00;;;4.10;94.00;;;;;;3917902;30;20057;-61
2021/12/09 06:07:57;;;;;;;0.00;0.00;;;4.10;94.00;;;;;;3917523;30;20122;-61
2021/12/09 06:10:20;;;;;;;0.00;0.00;;;4.20;94.00;;;;;;3917435;30;20799;-62
2021/12/09 06:12:43;;;;;;;0.00;0.00;;;4.20;94.00;;;;;;3917775;30;20060;-62
2021/12/09 06:15:06;;;;;;;0.00;0.00;;;4.10;94.00;;;;;;3917932;30;20049;-62
2021/12/09 06:17:29;;;;;;;0.00;0.00;;;4.10;94.10;;;;;;3917846;30;20080;-62
2021/12/09 06:19:51;;;;;;;0.00;0.00;;;4.10;94.10;;;;;;3917686;30;20088;-62
2021/12/09 06:22:13;;;;;;;0.00;0.00;;;4.10;94.10;;;;;;3917179;30;20535;-63
2021/12/09 06:24:36;;;;;;;0.00;0.00;;;4.10;94.10;;;;;;3905573;30;20135;-62
2021/12/09 06:26:59;;;;;;;0.00;0.00;;;4.10;94.10;;;;;;3917661;30;20136;-62
2021/12/09 06:29:21;;;;;;;0.00;0.00;;;4.10;94.10;;;;;;3917718;30;20466;-61
2021/12/09 06:31:44;;;;;;;0.00;0.00;;;4.10;94.10;;;;;;3928915;30;20076;-61
2021/12/09 06:34:07;;;;;;;0.00;0.00;;;4.10;94.10;;;;;;3929505;30;20059;-62
2021/12/09 06:36:29;;;;;;;0.00;0.00;;;4.10;94.10;;;;;;3917033;30;20070;-61
2021/12/09 06:38:52;;;;;;;0.00;0.00;;;4.10;94.10;;;;;;3917400;30;20055;-61
2021/12/09 06:41:14;;;;;;;0.00;0.00;;;4.20;94.10;;;;;;3929541;30;20081;-62
2021/12/09 06:43:40;;;;;;;0.00;0.00;;;4.20;94.00;;;;;;3917345;30;20057;-61
2021/12/09 06:46:03;;;;;;;0.00;0.00;;;4.20;93.90;;;;;;3917447;30;20052;-62
2021/12/09 06:48:26;;;;;;;0.00;0.00;;;4.20;93.90;;;;;;3916761;30;20056;-61
2021/12/09 06:50:49;;;;;;;0.00;0.00;;;4.20;93.90;;;;;;3904521;30;20140;-61
2021/12/09 06:53:14;;;;;;;0.00;0.00;;;4.20;93.80;;;;;;3917253;30;20128;-62
2021/12/09 06:55:38;;;;;;;0.00;0.00;;;4.30;93.80;;;;;;3917195;30;20535;-61
2021/12/09 06:58:00;;;;;;;0.00;0.00;;;4.30;93.70;;;;;;3916923;30;20053;-61
2021/12/09 07:00:31;;;;;;;0.00;0.00;;;4.30;93.80;;;;;;3916503;30;20060;-64
2021/12/09 07:03:02;;;;;;;0.00;0.00;;;4.40;93.80;;;;;;3944204;30;20494;-64
2021/12/09 07:05:27;;;;;;;0.00;0.00;;;4.50;93.70;;;;;;3931518;30;20082;-64
2021/12/09 07:07:50;;;;;;;0.00;0.00;;;4.60;93.50;;;;;;3931723;30;20152;-64
2021/12/09 07:10:14;;;;;;;0.00;0.00;;;4.60;93.40;;;;;;3931223;30;20090;-62
2021/12/09 07:12:38;;;;;;;0.00;0.00;;;4.60;93.40;;;;;;3931729;30;20052;-62
2021/12/09 07:15:02;;;;;;;0.00;0.00;;;4.60;93.30;;;;;;3931534;30;20076;-58
2021/12/09 07:17:24;;;;;;;0.00;0.00;;;4.50;93.20;;;;;;3931660;30;20502;-63
2021/12/09 07:19:47;;;;;;;0.00;0.00;;;4.60;93.20;;;;;;3931416;30;20048;-63
2021/12/09 07:22:09;;;;;;;0.00;0.00;;;4.60;93.10;;;;;;3931076;30;20048;-64
2021/12/09 07:24:32;;;;;;;0.00;0.00;;;4.60;93.10;;;;;;3930880;30;20151;-64
2021/12/09 07:26:57;;;;;;;0.00;0.00;;;4.60;93.00;;;;;;3928846;30;20125;-64
2021/12/09 07:29:19;;;;;;;0.00;0.00;;;4.60;92.90;;;;;;3931240;30;20044;-63
2021/12/09 07:31:42;;;;;;;0.00;0.00;;;4.60;92.90;;;;;;3930509;30;20156;-63
2021/12/09 07:34:05;;;;;;;0.00;0.00;;;4.60;92.90;;;;;;3916257;30;20069;-63
2021/12/09 07:36:27;;;;;;;0.00;0.00;;;4.60;92.80;;;;;;3928500;30;20468;-62
2021/12/09 07:38:50;;;;;;;0.00;0.00;;;4.60;92.50;;;;;;3916733;30;20048;-63
2021/12/09 07:41:14;;;;;;;0.00;0.00;;;4.60;92.60;;;;;;3924520;30;20060;-59
2021/12/09 07:43:36;;;;;;;0.00;0.00;;;4.60;92.60;;;;;;3930925;30;20052;-61
2021/12/09 07:45:59;;;;;;;0.00;0.00;;;4.70;92.60;;;;;;3918698;30;20554;-61
2021/12/09 07:48:21;;;;;;;0.00;0.00;;;4.60;92.60;;;;;;3942590;30;20091;-59
2021/12/09 07:50:44;;;;;;;0.00;0.00;;;4.70;92.80;;;;;;3930837;30;20885;-59
2021/12/09 07:53:06;;;;;;;0.00;0.00;;;4.70;92.70;;;;;;3930853;30;20151;-58
2021/12/09 07:55:29;;;;;;;0.00;0.00;;;4.70;92.50;;;;;;3918613;30;20063;-59
2021/12/09 07:57:52;;;;;;;0.00;0.00;;;4.80;92.40;;;;;;3918595;30;20496;-59
2021/12/09 08:00:24;;;;;;;0.00;0.00;;;4.80;92.30;;;;;;3930505;30;20523;-58
2021/12/09 08:02:51;;;;;;;0.00;0.00;;;4.90;92.30;;;;;;3930723;30;20123;-58
2021/12/09 08:05:16;;;;;;;0.00;0.00;;;4.80;92.20;;;;;;3930722;30;20114;-59
2021/12/09 08:07:41;;;;;;;0.00;0.00;;;4.80;92.20;;;;;;3930450;30;20160;-59
2021/12/09 08:10:22;;;;;;;0.00;0.00;;;4.80;92.20;;;;;;3930539;30;20060;-58
2021/12/09 08:12:45;;;;;;;0.00;0.00;;;4.90;92.10;;;;;;3930514;30;20527;-59
2021/12/09 08:15:20;;;;;;;0.00;0.00;;;4.80;92.10;;;;;;3930660;30;20135;-62
2021/12/09 08:20:07;;;;;;;0.00;0.00;;;4.90;92.10;;;;;;3930476;30;20134;-57
2021/12/09 08:22:30;;;;;;;0.00;0.00;;;4.90;92.00;;;;;;3930059;30;20056;-59
2021/12/09 08:24:58;;;;;;;0.00;0.00;;;5.00;92.00;;;;;;3930414;30;20045;-58
2021/12/09 08:27:29;;;;;;;0.00;0.00;;;5.10;92.00;;;;;;3919432;30;20581;-57
2021/12/09 08:29:52;;;;;;;0.00;0.00;;;5.10;91.90;;;;;;3930396;30;20056;-58
2021/12/09 08:32:14;;;;;;;0.00;0.00;;;5.20;91.90;;;;;;3929733;30;20096;-58
2021/12/09 08:34:36;;;;;;;0.00;0.00;;;5.20;91.80;;;;;;3942407;30;20059;-60
2021/12/09 08:36:59;;;;;;;0.00;0.00;;;5.20;91.70;;;;;;3930380;30;20096;-57
2021/12/09 08:39:22;;;;;;;0.00;0.00;;;5.20;91.70;;;;;;3930517;30;20070;-57
2021/12/09 08:41:44;;;;;;;0.00;0.00;;;5.20;91.60;;;;;;3929906;30;20067;-63
2021/12/09 08:44:07;;;;;;;0.00;0.00;;;5.20;91.50;;;;;;3930146;30;20059;-63
2021/12/09 08:46:29;;;;;;;0.00;0.00;;;5.20;91.50;;;;;;3929906;30;20112;-62
2021/12/09 08:48:53;;;;;;;0.00;0.00;;;5.30;91.30;;;;;;3918075;30;20055;-64
2021/12/09 08:51:18;;;;;;;0.00;0.00;;;5.30;91.30;;;;;;3930021;30;20052;-63
2021/12/09 08:53:41;;;;;;;0.00;0.00;;;5.30;91.20;;;;;;3942398;30;20087;-64
2021/12/09 08:56:04;;;;;;;0.00;0.00;;;5.40;91.10;;;;;;3930196;30;20519;-65
2021/12/09 08:58:29;;;;;;;0.00;0.00;;;5.40;90.90;;;;;;3918032;30;20052;-64
2021/12/09 09:00:53;;;;;;;0.00;0.00;;;5.50;90.80;;;;;;3929865;30;20515;-63
2021/12/09 09:03:16;;;;;;;0.00;0.00;;;5.50;90.70;;;;;;3942154;30;20055;-64
2021/12/09 09:05:40;;;;;;;0.00;0.00;;;5.60;90.70;;;;;;3917624;30;20060;-59
2021/12/09 09:08:05;;;;;;;0.00;0.00;;;5.60;90.50;;;;;;3929943;30;20127;-60
2021/12/09 09:10:30;;;;;;;0.00;0.00;;;5.50;90.30;;;;;;3929333;30;20056;-63
2021/12/09 09:12:54;;;;;;;0.00;0.00;;;5.50;90.30;;;;;;3929343;30;20143;-59
2021/12/09 09:15:18;;;;;;;0.00;0.00;;;5.60;90.40;;;;;;3929771;30;20041;-60
2021/12/09 09:17:41;;;;;;;0.00;0.00;;;5.50;90.20;;;;;;3929883;30;20063;-63
2021/12/09 09:20:06;;;;;;;0.00;0.00;;;5.60;90.20;;;;;;3929664;30;20052;-63
2021/12/09 09:22:28;;;;;;;0.00;0.00;;;5.50;90.30;;;;;;3929027;30;20055;-63
2021/12/09 09:24:51;;;;;;;0.00;0.00;;;5.50;90.20;;;;;;3942119;30;20047;-61
2021/12/09 09:27:13;;;;;;;0.00;0.00;;;5.40;90.30;;;;;;3929755;30;20083;-63
2021/12/09 09:29:39;;;;;;;0.00;0.00;;;5.40;90.40;;;;;;3929738;30;20076;-63
2021/12/09 09:32:02;;;;;;;0.00;0.00;;;5.40;90.50;;;;;;3928720;30;20088;-63
2021/12/09 09:34:24;;;;;;;0.00;0.00;;;5.50;90.40;;;;;;3936086;30;20622;-61
2021/12/09 09:36:47;;;;;;;0.00;0.00;;;5.60;90.40;;;;;;3929790;30;20044;-63
2021/12/09 09:39:19;;;;;;;0.00;0.00;;;5.50;90.30;;;;;;3929740;30;20518;-57
2021/12/09 09:41:41;;;;;;;;;;;5.50;90.30;;;;;;3917655;30;20447;-63
2021/12/09 09:44:13;;;;;;;0.00;0.00;;;5.60;90.30;;;;;;3929492;30;20598;-60
2021/12/09 09:46:36;;;;;;;0.00;0.00;;;5.60;90.10;;;;;;3941716;30;20125;-62
2021/12/09 09:49:01;;;;;;;0.00;0.00;;;5.50;90.00;;;;;;3929654;30;20063;-61
2021/12/09 09:51:27;;;;;;;0.00;0.00;;;5.50;89.90;;;;;;3929432;30;20045;-61
2021/12/09 09:53:50;;;;;;;0.00;0.00;;;5.40;89.80;;;;;;3929521;30;20131;-60
2021/12/09 09:56:18;;;;;;;0.00;0.00;;;5.50;90.00;;;;;;3929206;30;20059;-63
2021/12/09 09:58:49;;;;;;;0.00;0.00;;;5.50;89.80;;;;;;3942098;30;20418;-59
2021/12/09 10:01:11;;;;;;;0.00;0.00;;;5.50;89.70;;;;;;3929181;30;20497;-59
2021/12/09 10:03:43;;;;;;;0.00;0.00;;;5.50;89.50;;;;;;3941577;30;20110;-63
2021/12/09 10:06:05;;;;;;;0.00;0.00;;;5.50;89.50;;;;;;3929582;30;20056;-58
2021/12/09 10:08:31;;;;;;;0.00;0.00;;;5.60;89.40;;;;;;3929127;30;20052;-60
2021/12/09 10:11:01;;;;;;;;;;;5.50;89.20;;;;;;3942053;30;20581;-59
2021/12/09 10:13:37;;;;;;;0.00;0.00;;;5.50;89.20;;;;;;3929384;30;20404;-61
2021/12/09 10:16:05;;;;;;;0.00;0.00;;;5.50;89.20;;;;;;3929541;30;20056;-62
2021/12/09 10:18:35;;;;;;;0.00;0.00;;;5.50;89.40;;;;;;3928930;30;20091;-62
2021/12/09 10:20:59;;;;;;;0.00;0.00;;;5.50;89.40;;;;;;3929361;30;20515;-64
2021/12/09 10:23:27;;;;;;;0.00;0.00;;;5.50;89.20;;;;;;3929393;30;20048;-65
2021/12/09 10:26:15;;;;;;;0.00;0.00;;;5.60;89.20;;;;;;3929195;30;20052;-59
2021/12/09 10:28:51;;;;;;;0.00;0.00;;;5.70;89.20;;;;;;3929035;30;20059;-60
2021/12/09 10:31:27;;;;;;;0.00;0.00;;;5.70;88.80;;;;;;3929524;30;20481;-64
2021/12/09 10:34:27;;;;;;;0.00;0.00;;;5.70;89.00;;;;;;3931533;30;20486;-61
2021/12/09 10:36:57;;;;;;;0.00;0.00;;;5.70;89.20;;;;;;3931701;30;20051;-61
2021/12/09 10:39:19;;;;;;;0.00;0.00;;;5.70;89.50;;;;;;3932091;30;20472;-64
2021/12/09 10:41:41;;;;;;;0.00;0.00;;;5.70;89.60;;;;;;3931571;30;20048;-63
2021/12/09 10:44:04;;;;;;;0.00;0.00;;;5.80;89.80;;;;;;3931843;30;20066;-62
2021/12/09 10:47:24;;;;;;;0.00;0.00;;;5.70;89.70;;;;;;3931663;30;20135;-64
2021/12/09 10:50:12;;;;;;;0.00;0.00;;;5.80;89.80;;;;;;3904049;30;20064;-64
2021/12/09 10:52:43;;;;;;;0.00;0.00;;;5.80;90.00;;;;;;3903708;30;20049;-63
2021/12/09 10:55:14;;;;;;;0.00;0.00;;;5.70;90.00;;;;;;3903997;30;20111;-63
2021/12/09 10:57:37;;;;;;;0.00;0.00;;;5.80;90.00;;;;;;3904037;30;20041;-63
2021/12/09 11:00:27;;;;;;;0.00;0.00;;;5.80;90.00;;;;;;3903857;30;20081;-63
2021/12/09 11:03:09;;;;;;;0.00;0.00;;;6.00;90.00;;;;;;3903493;30;20056;-62
2021/12/09 11:05:35;;;;;;;0.00;0.00;;;6.20;89.50;;;;;;3903812;30;20092;-64
2021/12/09 11:08:18;;;;;;;0.00;0.00;;;6.70;88.80;;;;;;3903917;30;20094;-64
2021/12/09 11:10:46;;;;;;;0.00;0.00;;;6.70;87.70;;;;;;3903307;30;20136;-59
2021/12/09 11:13:08;;;;;;;0.00;0.00;;;6.50;87.30;;;;;;3903696;30;20053;-63
2021/12/09 11:15:57;;;;;;;0.00;0.00;;;6.40;87.80;;;;;;3903594;30;20060;-58
2021/12/09 11:18:32;;;;;;;0.00;0.00;;;6.20;88.10;;;;;;3903330;30;20060;-59
2021/12/09 11:20:55;;;;;;;0.00;0.00;;;6.20;88.20;;;;;;3903629;30;20312;-64
2021/12/09 11:23:51;;;;;;;0.00;0.00;;;6.10;87.90;;;;;;3915621;30;20056;-64
2021/12/09 11:26:46;;;;;;;0.00;0.00;;;6.00;87.80;;;;;;3903097;30;20049;-62
2021/12/09 11:29:51;;;;;;;0.00;0.00;;;6.00;87.70;;;;;;3903566;30;20057;-63
2021/12/09 11:32:31;;;;;;;0.00;0.00;;;5.70;87.60;;;;;;3876580;30;20412;-64
2021/12/09 11:35:22;;;;;;;0.00;0.00;;;5.60;87.80;;;;;;3900899;30;20510;-63
2021/12/09 11:37:54;;;;;;;0.00;0.00;;;5.80;88.30;;;;;;3901287;30;20049;-62
2021/12/09 11:40:36;;;;;;;0.00;0.00;;;5.80;87.60;;;;;;3888961;30;20061;-58
2021/12/09 11:43:01;;;;;;;0.00;0.00;;;5.80;87.10;;;;;;3877192;30;20053;-59
2021/12/09 11:45:30;;;;;;;0.00;0.00;;;5.80;87.40;;;;;;3900861;30;20401;-59
2021/12/09 11:47:55;;;;;;;0.00;0.00;;;5.90;87.60;;;;;;3876777;30;20141;-58
2021/12/09 11:50:24;;;;;;;0.00;0.00;;;5.90;87.60;;;;;;3900724;30;20132;-57
2021/12/09 11:52:51;;;;;;;0.00;0.00;;;5.80;87.80;;;;;;3901032;30;20155;-58
2021/12/09 11:55:18;;;;;;;0.00;0.00;;;5.80;87.50;;;;;;3900683;30;20230;-61
2021/12/09 11:57:46;;;;;;;0.00;0.00;;;5.80;87.60;;;;;;3900685;30;20063;-58
2021/12/09 12:11:59;;;;;;;0.00;0.00;;;5.70;86.60;;;;;;3915706;30;20055;-58
2021/12/09 12:14:39;;;;;;;0.00;0.00;;;5.80;86.70;;;;;;3915626;30;20057;-60
2021/12/09 12:17:11;;;;;;;0.00;0.00;;;5.90;86.50;;;;;;3915974;30;20059;-57
2021/12/09 12:20:15;;;;;;;0.00;0.00;;;5.90;86.50;;;;;;3916143;30;20224;-59
2021/12/09 12:23:16;;;;;;;0.00;0.00;;;5.80;86.20;;;;;;3915674;30;20062;-54
2021/12/09 12:28:34;;;;;;;0.00;0.00;;;5.70;86.10;;;;;;3915940;30;20569;-57
2021/12/09 12:31:24;;;;;;;0.00;0.00;;;5.80;86.10;;;;;;3915182;30;20056;-58
2021/12/09 12:34:42;;;;;;;0.00;0.00;;;5.60;85.60;;;;;;3915563;30;20049;-62
2021/12/09 12:37:09;;;;;;;0.00;0.00;;;5.60;86.00;;;;;;3915538;30;20056;-58
2021/12/09 12:42:15;;;;;;;0.00;0.00;;;5.70;86.60;;;;;;3915516;30;20101;-59
2021/12/09 12:45:20;;;;;;;0.00;0.00;;;5.60;86.80;;;;;;3915421;30;20149;-60
2021/12/09 12:47:52;;;;;;;0.00;0.00;;;5.60;87.30;;;;;;3915592;30;20052;-62
2021/12/09 12:50:16;;;;;;;0.00;0.00;;;5.70;87.40;;;;;;3915181;30;20063;-61
2021/12/09 12:52:40;;;;;;;0.00;0.00;;;5.70;87.50;;;;;;3915754;30;20044;-61
2021/12/09 12:55:20;;;;;;;0.00;0.00;;;5.70;87.90;;;;;;3915240;30;20063;-61
2021/12/09 12:57:48;;;;;;;0.00;0.00;;;5.70;88.00;;;;;;3915521;30;20072;-62
2021/12/09 13:00:16;;;;;;;0.00;0.00;;;5.70;88.00;;;;;;3915591;30;20067;-63
2021/12/09 13:03:06;;;;;;;0.00;0.00;;;5.80;87.80;;;;;;3927299;30;20071;-61
2021/12/09 13:06:14;;;;;;;0.00;0.00;;;5.80;88.30;;;;;;3915486;30;20072;-60
2021/12/09 13:11:17;;;;;;;0.00;0.00;;;6.00;87.20;;;;;;3927455;30;20083;-63
2021/12/09 13:16:19;;;;;;;0.00;0.00;;;6.10;87.10;;;;;;3915442;30;20407;-63
2021/12/09 13:19:00;;;;;;;0.00;0.00;;;6.10;86.50;;;;;;3927246;30;20064;-60